createdAt,value
2023-08-15T00:00:09.415Z,100.00
2023-08-15T00:02:37.892Z,100.00
2023-08-15T00:05:09.250Z,100.00
2023-08-15T00:07:37.717Z,100.00
2023-08-15T00:10:06.791Z,100.00
2023-08-15T00:12:35.324Z,100.00
2023-08-15T00:15:04.219Z,100.00
2023-08-15T00:17:32.979Z,100.00
2023-08-15T00:20:01.366Z,100.00
2023-08-15T00:22:31.124Z,100.00
2023-08-15T00:24:59.679Z,100.00
2023-08-15T00:27:28.063Z,100.00
2023-08-15T00:29:56.455Z,100.00
2023-08-15T00:32:24.830Z,100.00
2023-08-15T00:34:53.432Z,100.00
2023-08-15T00:37:22.059Z,100.00
2023-08-15T00:39:52.132Z,100.00
2023-08-15T00:42:20.630Z,100.00
2023-08-15T00:44:49.187Z,100.00
2023-08-15T00:47:17.833Z,100.00
2023-08-15T00:49:46.953Z,100.00
2023-08-15T00:52:17.470Z,100.00
2023-08-15T00:54:49.127Z,100.00
2023-08-15T00:57:20.542Z,100.00
2023-08-15T00:59:49.432Z,100.00
2023-08-15T01:02:17.956Z,100.00
2023-08-15T01:04:46.885Z,100.00
2023-08-15T01:07:19.334Z,100.00
2023-08-15T01:09:48.091Z,100.00
2023-08-15T01:12:27.803Z,100.00
2023-08-15T01:15:02.926Z,100.00
2023-08-15T01:17:37.895Z,100.00
2023-08-15T01:20:09.934Z,100.00
2023-08-15T01:22:43.448Z,100.00
2023-08-15T01:25:13.318Z,100.00
2023-08-15T01:27:41.692Z,100.00
2023-08-15T01:30:11.020Z,100.00
2023-08-15T01:32:48.086Z,100.00
2023-08-15T01:35:21.967Z,100.00
2023-08-15T01:37:56.841Z,100.00
2023-08-15T01:40:29.635Z,100.00
2023-08-15T01:42:59.814Z,100.00
2023-08-15T01:45:29.351Z,100.00
2023-08-15T01:47:58.077Z,100.00
2023-08-15T01:50:26.724Z,100.00
2023-08-15T01:52:55.469Z,100.00
2023-08-15T01:55:23.803Z,100.00
2023-08-15T01:57:53.650Z,100.00
2023-08-15T02:00:22.309Z,100.00
2023-08-15T02:02:51.086Z,100.00
2023-08-15T02:05:20.970Z,100.00
2023-08-15T02:07:49.792Z,100.00
2023-08-15T02:10:18.322Z,100.00
2023-08-15T02:12:46.739Z,100.00
2023-08-15T02:15:16.601Z,100.00
2023-08-15T02:17:44.978Z,100.00
2023-08-15T02:20:14.184Z,100.00
2023-08-15T02:22:42.726Z,100.00
2023-08-15T02:25:11.330Z,100.00
2023-08-15T02:27:39.796Z,100.00
2023-08-15T02:30:09.643Z,100.00
2023-08-15T02:32:39.499Z,100.00
2023-08-15T02:35:09.119Z,100.00
2023-08-15T02:37:37.441Z,100.00
2023-08-15T02:40:07.532Z,100.00
2023-08-15T02:42:35.894Z,100.00
2023-08-15T02:45:04.552Z,100.00
2023-08-15T02:47:33.327Z,100.00
2023-08-15T02:50:03.135Z,100.00
2023-08-15T02:52:31.723Z,100.00
2023-08-15T02:55:00.208Z,100.00
2023-08-15T02:57:28.658Z,100.00
2023-08-15T02:59:56.986Z,100.00
2023-08-15T03:02:25.897Z,100.00
2023-08-15T03:04:54.446Z,100.00
2023-08-15T03:07:25.322Z,100.00
2023-08-15T03:09:54.132Z,100.00
2023-08-15T03:12:22.495Z,100.00
2023-08-15T03:14:50.907Z,100.00
2023-08-15T03:17:20.762Z,100.00
2023-08-15T03:19:49.330Z,100.00
2023-08-15T03:22:17.695Z,100.00
2023-08-15T03:24:47.777Z,100.00
2023-08-15T03:27:16.276Z,100.00
2023-08-15T03:29:44.678Z,100.00
2023-08-15T03:32:13.226Z,100.00
2023-08-15T03:34:41.826Z,100.00
2023-08-15T03:37:10.225Z,100.00
2023-08-15T03:39:38.580Z,100.00
2023-08-15T03:42:08.471Z,100.00
2023-08-15T03:44:37.168Z,100.00
2023-08-15T03:47:05.760Z,100.00
2023-08-15T03:49:34.255Z,100.00
2023-08-15T03:52:02.796Z,100.00
2023-08-15T03:54:31.172Z,100.00
2023-08-15T03:56:59.667Z,100.00
2023-08-15T03:59:29.440Z,100.00
2023-08-15T04:01:59.274Z,100.00
2023-08-15T04:04:27.761Z,100.00
2023-08-15T04:06:56.185Z,100.00
2023-08-15T04:09:24.561Z,100.00
2023-08-15T04:11:52.967Z,100.00
2023-08-15T04:14:21.463Z,100.00
2023-08-15T04:16:51.269Z,100.00
2023-08-15T04:19:19.553Z,100.00
2023-08-15T04:21:47.985Z,100.00
2023-08-15T04:24:16.356Z,100.00
2023-08-15T04:26:43.661Z,100.00
2023-08-15T04:29:12.214Z,100.00
2023-08-15T04:31:41.078Z,100.00
2023-08-15T04:34:10.869Z,100.00
2023-08-15T04:36:44.997Z,100.00
2023-08-15T04:39:13.343Z,100.00
2023-08-15T04:41:43.969Z,100.00
2023-08-15T04:44:13.142Z,100.00
2023-08-15T04:46:41.490Z,100.00
2023-08-15T04:49:11.325Z,100.00
2023-08-15T04:51:39.876Z,100.00
2023-08-15T04:54:08.431Z,100.00
2023-08-15T04:56:36.802Z,100.00
2023-08-15T04:59:05.261Z,98.16
2023-08-15T05:01:34.868Z,96.51
2023-08-15T05:04:03.289Z,95.93
2023-08-15T05:06:33.490Z,97.08
2023-08-15T05:09:01.874Z,91.47
2023-08-15T05:11:30.375Z,95.02
2023-08-15T05:14:01.689Z,92.45
2023-08-15T05:16:31.240Z,89.67
2023-08-15T05:18:59.609Z,91.35
2023-08-15T05:21:28.618Z,93.05
2023-08-15T05:23:58.603Z,99.11
2023-08-15T05:26:26.995Z,95.88
2023-08-15T05:28:55.390Z,86.80
2023-08-15T05:31:24.005Z,85.08
2023-08-15T05:33:52.455Z,87.13
2023-08-15T05:36:20.993Z,83.47
2023-08-15T05:38:49.478Z,84.66
2023-08-15T05:41:19.370Z,86.94
2023-08-15T05:43:47.769Z,85.30
2023-08-15T05:46:16.132Z,81.96
2023-08-15T05:48:44.567Z,83.56
2023-08-15T05:51:13.020Z,84.49
2023-08-15T05:53:41.469Z,86.72
2023-08-15T05:56:09.776Z,89.19
2023-08-15T05:58:42.205Z,87.54
2023-08-15T06:01:10.667Z,80.43
2023-08-15T06:03:51.798Z,79.59
2023-08-15T06:06:21.311Z,81.56
2023-08-15T06:08:50.060Z,83.09
2023-08-15T06:11:18.523Z,81.11
2023-08-15T06:13:48.526Z,86.80
2023-08-15T06:16:17.068Z,87.74
2023-08-15T06:18:45.439Z,89.38
2023-08-15T06:21:13.851Z,84.19
2023-08-15T06:23:42.412Z,82.30
2023-08-15T06:26:10.800Z,84.29
2023-08-15T06:28:39.186Z,84.29
2023-08-15T06:31:08.971Z,87.49
2023-08-15T06:33:37.418Z,88.65
2023-08-15T06:36:06.063Z,86.50
2023-08-15T06:38:34.485Z,84.46
2023-08-15T06:41:03.942Z,86.75
2023-08-15T06:43:32.287Z,86.81
2023-08-15T06:46:00.767Z,92.00
2023-08-15T06:48:30.532Z,95.25
2023-08-15T06:50:58.984Z,98.03
2023-08-15T06:53:27.829Z,96.61
2023-08-15T06:55:56.167Z,96.38
2023-08-15T06:58:24.632Z,90.11
2023-08-15T07:00:53.389Z,89.90
2023-08-15T07:03:23.902Z,91.10
2023-08-15T07:05:54.516Z,90.70
2023-08-15T07:08:22.950Z,89.77
2023-08-15T07:10:56.665Z,88.63
2023-08-15T07:13:25.376Z,88.06
2023-08-15T07:15:57.376Z,89.80
2023-08-15T07:18:26.328Z,92.37
2023-08-15T07:20:56.133Z,90.50
2023-08-15T07:23:24.607Z,91.01
2023-08-15T07:25:53.146Z,91.68
2023-08-15T07:28:21.722Z,86.51
2023-08-15T07:30:50.421Z,84.22
2023-08-15T07:33:19.018Z,85.85
2023-08-15T07:35:47.459Z,84.85
2023-08-15T07:38:17.290Z,81.46
2023-08-15T07:40:48.329Z,82.03
2023-08-15T07:43:19.907Z,83.31
2023-08-15T07:45:48.339Z,83.60
2023-08-15T07:48:16.703Z,82.36
2023-08-15T07:50:45.381Z,84.25
2023-08-15T07:53:14.113Z,85.28
2023-08-15T07:55:44.135Z,83.54
2023-08-15T07:58:12.807Z,82.57
2023-08-15T08:00:41.374Z,81.68
2023-08-15T08:03:09.907Z,82.00
2023-08-15T08:05:38.384Z,82.81
2023-08-15T08:08:07.254Z,83.95
2023-08-15T08:10:37.770Z,80.38
2023-08-15T08:13:07.977Z,81.26
2023-08-15T08:15:36.447Z,79.53
2023-08-15T08:18:05.239Z,78.03
2023-08-15T08:20:33.653Z,76.87
2023-08-15T08:23:02.051Z,77.09
2023-08-15T08:25:30.583Z,76.81
2023-08-15T08:27:59.091Z,82.31
2023-08-15T08:30:30.112Z,84.22
2023-08-15T08:32:59.809Z,84.85
2023-08-15T08:35:28.350Z,86.49
2023-08-15T08:37:58.180Z,85.65
2023-08-15T08:40:26.712Z,87.04
2023-08-15T08:42:55.113Z,84.86
2023-08-15T08:45:28.063Z,83.28
2023-08-15T08:47:58.554Z,80.46
2023-08-15T08:50:28.872Z,80.67
2023-08-15T08:52:57.553Z,80.89
2023-08-15T08:55:26.779Z,79.59
2023-08-15T08:57:55.947Z,78.79
2023-08-15T09:00:30.061Z,77.09
2023-08-15T09:03:00.817Z,76.53
2023-08-15T09:05:30.073Z,77.56
2023-08-15T09:07:59.329Z,77.96
2023-08-15T09:10:27.798Z,77.76
2023-08-15T09:13:00.912Z,79.93
2023-08-15T09:15:31.455Z,78.85
2023-08-15T09:18:06.294Z,80.44
2023-08-15T09:20:35.943Z,81.81
2023-08-15T09:23:06.117Z,81.18
2023-08-15T09:25:38.310Z,79.52
2023-08-15T09:28:08.289Z,82.46
2023-08-15T09:30:36.794Z,83.56
2023-08-15T09:33:07.555Z,81.11
2023-08-15T09:35:42.668Z,81.13
2023-08-15T09:38:17.746Z,81.91
2023-08-15T09:40:49.728Z,82.24
2023-08-15T09:43:18.331Z,81.46
2023-08-15T09:45:46.730Z,80.20
2023-08-15T09:48:18.196Z,78.32
2023-08-15T09:50:49.998Z,82.54
2023-08-15T09:53:18.479Z,82.54
2023-08-15T09:55:46.889Z,81.49
2023-08-15T09:58:15.413Z,80.58
2023-08-15T10:00:44.606Z,80.71
2023-08-15T10:03:21.039Z,79.89
2023-08-15T10:05:56.278Z,80.69
2023-08-15T10:08:25.805Z,79.30
2023-08-15T10:10:55.702Z,78.99
2023-08-15T10:13:27.385Z,80.38
2023-08-15T10:15:57.217Z,80.62
2023-08-15T10:18:27.682Z,79.75
2023-08-15T10:20:57.509Z,79.17
2023-08-15T10:23:32.191Z,79.57
2023-08-15T10:26:01.952Z,81.88
2023-08-15T10:28:31.364Z,80.49
2023-08-15T10:30:59.999Z,80.05
2023-08-15T10:33:33.006Z,78.19
2023-08-15T10:36:09.649Z,78.91
2023-08-15T10:38:42.580Z,78.63
2023-08-15T10:41:15.698Z,79.92
2023-08-15T10:43:49.532Z,81.45
2023-08-15T10:46:20.150Z,82.72
2023-08-15T10:49:03.430Z,81.82
2023-08-15T10:51:34.027Z,83.90
2023-08-15T10:54:04.409Z,82.50
2023-08-15T10:56:36.520Z,83.78
2023-08-15T10:59:08.862Z,83.40
2023-08-15T11:01:39.453Z,84.00
2023-08-15T11:04:11.733Z,82.48
2023-08-15T11:06:43.806Z,81.01
2023-08-15T11:09:13.054Z,82.48
2023-08-15T11:11:41.747Z,79.93
2023-08-15T11:14:18.174Z,81.29
2023-08-15T11:16:47.156Z,83.06
2023-08-15T11:19:18.962Z,81.29
2023-08-15T11:21:48.856Z,82.19
2023-08-15T11:24:17.376Z,80.43
2023-08-15T11:26:46.159Z,77.64
2023-08-15T11:29:14.838Z,77.02
2023-08-15T11:31:43.753Z,78.05
2023-08-15T11:34:13.567Z,75.19
2023-08-15T11:36:43.704Z,76.10
2023-08-15T11:39:15.654Z,76.01
2023-08-15T11:41:46.304Z,77.28
2023-08-15T11:44:14.669Z,77.98
2023-08-15T11:49:19.150Z,78.78
2023-08-15T11:51:49.572Z,78.16
2023-08-15T11:54:18.077Z,78.15
2023-08-15T11:56:50.759Z,79.35
2023-08-15T11:59:19.765Z,82.37
2023-08-15T12:01:49.297Z,85.57
2023-08-15T12:04:18.889Z,91.32
2023-08-15T12:06:48.860Z,95.66
2023-08-15T12:09:17.546Z,97.81
2023-08-15T12:11:46.336Z,97.94
2023-08-15T12:14:21.204Z,98.26
2023-08-15T12:16:49.888Z,97.21
2023-08-15T12:19:22.993Z,95.68
2023-08-15T12:21:54.925Z,95.14
2023-08-15T12:24:24.296Z,97.23
2023-08-15T12:26:52.701Z,96.51
2023-08-15T12:30:11.054Z,93.71
2023-08-15T12:32:09.803Z,93.27
2023-08-15T12:34:38.361Z,92.96
2023-08-15T12:37:08.280Z,93.48
2023-08-15T12:39:36.861Z,93.00
2023-08-15T12:42:05.545Z,91.26
2023-08-15T12:44:34.187Z,92.58
2023-08-15T12:47:02.656Z,94.19
2023-08-15T12:49:31.008Z,93.94
2023-08-15T12:51:59.482Z,93.65
2023-08-15T12:54:29.313Z,93.58
2023-08-15T12:56:57.795Z,93.05
2023-08-15T12:59:26.230Z,92.00
2023-08-15T13:01:54.609Z,92.11
2023-08-15T13:04:23.126Z,90.28
2023-08-15T13:06:51.515Z,91.95
2023-08-15T13:09:20.337Z,90.14
2023-08-15T13:11:50.283Z,92.14
2023-08-15T13:14:20.623Z,92.38
2023-08-15T13:16:51.221Z,93.23
2023-08-15T13:19:19.705Z,93.91
2023-08-15T13:21:48.044Z,97.85
2023-08-15T13:24:16.525Z,100.00
2023-08-15T13:26:44.911Z,100.00
2023-08-15T13:29:14.809Z,100.00
2023-08-15T13:31:43.317Z,100.00
2023-08-15T13:34:12.023Z,100.00
2023-08-15T13:36:42.324Z,100.00
2023-08-15T13:39:11.782Z,100.00
2023-08-15T13:41:40.118Z,100.00
2023-08-15T13:44:08.774Z,100.00
2023-08-15T13:46:39.407Z,100.00
2023-08-15T13:49:07.756Z,100.00
2023-08-15T13:51:36.260Z,100.00
2023-08-15T13:54:06.167Z,100.00
2023-08-15T13:56:34.490Z,100.00
2023-08-15T13:59:02.984Z,100.00
2023-08-15T14:01:33.545Z,100.00
2023-08-15T14:04:03.540Z,100.00
2023-08-15T14:06:31.905Z,100.00
2023-08-15T14:09:00.741Z,98.54
2023-08-15T14:11:29.426Z,98.51
2023-08-15T14:13:57.750Z,97.17
2023-08-15T14:16:26.273Z,95.21
2023-08-15T14:18:54.788Z,96.07
2023-08-15T14:21:25.517Z,97.36
2023-08-15T14:23:54.182Z,98.36
2023-08-15T14:26:22.568Z,97.42
2023-08-15T14:28:51.012Z,95.73
2023-08-15T14:31:19.528Z,94.52
2023-08-15T14:33:47.914Z,95.32
2023-08-15T14:36:16.433Z,94.94
2023-08-15T14:38:46.327Z,95.81
2023-08-15T14:41:14.803Z,96.16
2023-08-15T14:43:43.222Z,95.69
2023-08-15T14:46:11.667Z,96.96
2023-08-15T14:48:40.077Z,96.71
2023-08-15T14:51:08.608Z,95.77
2023-08-15T14:53:37.105Z,96.25
2023-08-15T14:56:08.107Z,95.59
2023-08-15T14:58:36.792Z,94.91
2023-08-15T15:01:09.914Z,94.45
2023-08-15T15:03:39.942Z,94.08
2023-08-15T15:06:08.699Z,94.08
2023-08-15T15:08:37.338Z,93.90
2023-08-15T15:11:07.663Z,95.28
2023-08-15T15:13:36.038Z,96.05
2023-08-15T15:16:04.686Z,95.30
2023-08-15T15:18:33.326Z,95.50
2023-08-15T15:21:02.401Z,96.49
2023-08-15T15:23:31.631Z,94.62
2023-08-15T15:26:00.184Z,96.08
2023-08-15T15:28:30.072Z,97.02
2023-08-15T15:30:59.419Z,97.30
2023-08-15T15:33:30.595Z,96.74
2023-08-15T15:35:59.124Z,97.23
2023-08-15T15:38:27.631Z,95.46
2023-08-15T15:40:56.123Z,96.49
2023-08-15T15:43:24.744Z,96.95
2023-08-15T15:45:55.757Z,96.08
2023-08-15T15:48:24.409Z,96.57
2023-08-15T15:50:53.630Z,97.42
2023-08-15T15:53:22.271Z,97.85
2023-08-15T15:55:51.045Z,94.38
2023-08-15T15:58:19.697Z,95.26
2023-08-15T16:00:49.315Z,97.49
2023-08-15T16:03:19.491Z,97.57
2023-08-15T16:05:47.971Z,97.82
2023-08-15T16:08:16.621Z,97.03
2023-08-15T16:10:45.228Z,97.63
2023-08-15T16:13:14.338Z,98.23
2023-08-15T16:15:43.343Z,98.91
2023-08-15T16:18:11.781Z,99.09
2023-08-15T16:20:42.713Z,98.76
2023-08-15T16:23:11.136Z,99.11
2023-08-15T16:25:39.547Z,99.54
2023-08-15T16:28:08.413Z,99.75
2023-08-15T16:30:36.878Z,98.96
2023-08-15T16:33:05.719Z,99.19
2023-08-15T16:35:34.615Z,98.07
2023-08-15T16:38:04.660Z,98.87
2023-08-15T16:40:33.144Z,96.71
2023-08-15T16:43:16.176Z,96.80
2023-08-15T16:45:45.704Z,96.91
2023-08-15T16:48:16.058Z,98.23
2023-08-15T16:50:44.622Z,98.29
2023-08-15T16:53:14.505Z,98.97
2023-08-15T16:55:44.185Z,99.63
2023-08-15T16:58:15.043Z,100.00
2023-08-15T17:00:43.516Z,99.83
2023-08-15T17:03:12.155Z,99.21
2023-08-15T17:05:40.756Z,98.55
2023-08-15T17:08:09.686Z,97.92
2023-08-15T17:10:40.008Z,96.03
2023-08-15T17:13:08.423Z,97.67
2023-08-15T17:15:36.955Z,97.96
2023-08-15T17:18:05.852Z,97.69
2023-08-15T17:20:34.825Z,95.02
2023-08-15T17:23:03.257Z,96.78
2023-08-15T17:25:31.730Z,97.17
2023-08-15T17:28:01.624Z,98.04
2023-08-15T17:30:30.236Z,99.35
2023-08-15T17:32:58.780Z,100.00
2023-08-15T17:35:27.497Z,100.00
2023-08-15T17:37:55.882Z,100.00
2023-08-15T17:40:24.399Z,100.00
2023-08-15T17:42:52.911Z,100.00
2023-08-15T17:45:22.773Z,100.00
2023-08-15T17:47:51.457Z,100.00
2023-08-15T17:50:20.036Z,100.00
2023-08-15T17:52:49.128Z,100.00
2023-08-15T17:55:18.009Z,100.00
2023-08-15T17:57:48.296Z,100.00
2023-08-15T18:00:18.068Z,100.00
2023-08-15T18:02:49.018Z,100.00
2023-08-15T18:05:17.544Z,100.00
2023-08-15T18:07:45.963Z,100.00
2023-08-15T18:10:14.326Z,100.00
2023-08-15T18:12:42.736Z,100.00
2023-08-15T18:15:13.442Z,100.00
2023-08-15T18:17:53.760Z,100.00
2023-08-15T18:23:12.355Z,100.00
2023-08-15T18:25:41.518Z,100.00
2023-08-15T18:28:11.313Z,100.00
2023-08-15T18:30:40.646Z,100.00
2023-08-15T18:33:12.776Z,100.00
2023-08-15T18:35:43.288Z,100.00
2023-08-15T18:38:12.289Z,100.00
2023-08-15T18:40:41.761Z,100.00
2023-08-15T18:43:10.696Z,100.00
2023-08-15T18:45:45.285Z,100.00
2023-08-15T18:48:18.952Z,100.00
2023-08-15T18:50:47.875Z,100.00
2023-08-15T18:53:16.371Z,100.00
2023-08-15T18:55:44.868Z,100.00
2023-08-15T18:58:13.774Z,100.00
2023-08-15T19:00:44.209Z,100.00
2023-08-15T19:03:13.958Z,100.00
2023-08-15T19:05:47.704Z,100.00
2023-08-15T19:08:16.250Z,100.00
2023-08-15T19:10:45.208Z,100.00
2023-08-15T19:13:14.351Z,100.00
2023-08-15T19:15:43.239Z,100.00
2023-08-15T19:18:12.584Z,100.00
2023-08-15T19:20:42.717Z,100.00
2023-08-15T19:23:12.876Z,100.00
2023-08-15T19:25:41.306Z,100.00
2023-08-15T19:28:09.819Z,100.00
2023-08-15T19:30:40.995Z,100.00
2023-08-15T19:33:09.398Z,100.00
2023-08-15T19:35:40.001Z,100.00
2023-08-15T19:38:08.709Z,100.00
2023-08-15T19:40:39.191Z,100.00
2023-08-15T19:43:07.712Z,100.00
2023-08-15T19:45:36.348Z,100.00
2023-08-15T19:48:05.386Z,100.00
2023-08-15T19:50:33.808Z,100.00
2023-08-15T19:53:02.393Z,100.00
2023-08-15T19:55:33.796Z,100.00
2023-08-15T19:58:05.752Z,100.00
2023-08-15T20:00:34.174Z,100.00
2023-08-15T20:03:02.773Z,100.00
2023-08-15T20:05:31.236Z,100.00
2023-08-15T20:08:00.083Z,100.00
2023-08-15T20:10:29.588Z,100.00
2023-08-15T20:12:58.342Z,100.00
2023-08-15T20:15:28.418Z,100.00
2023-08-15T20:17:56.953Z,100.00
2023-08-15T20:20:25.642Z,100.00
2023-08-15T20:22:54.196Z,100.00
2023-08-15T20:25:22.615Z,100.00
2023-08-15T20:27:51.229Z,100.00
2023-08-15T20:30:20.056Z,100.00
2023-08-15T20:32:49.962Z,100.00
2023-08-15T20:35:18.509Z,100.00
2023-08-15T20:37:47.628Z,100.00
2023-08-15T20:40:16.905Z,100.00
2023-08-15T20:42:45.355Z,100.00
2023-08-15T20:45:15.067Z,100.00
2023-08-15T20:47:43.585Z,100.00
2023-08-15T20:50:13.688Z,100.00
2023-08-15T20:52:42.021Z,100.00
2023-08-15T20:55:14.655Z,100.00
2023-08-15T20:57:43.195Z,100.00
2023-08-15T21:00:12.728Z,100.00
2023-08-15T21:02:41.333Z,100.00
2023-08-15T21:05:13.681Z,100.00
2023-08-15T21:07:43.656Z,100.00
2023-08-15T21:10:12.354Z,100.00
2023-08-15T21:12:40.637Z,100.00
2023-08-15T21:15:09.943Z,100.00
2023-08-15T21:17:38.720Z,100.00
2023-08-15T21:20:09.691Z,100.00
2023-08-15T21:22:38.124Z,100.00
2023-08-15T21:25:08.854Z,100.00
2023-08-15T21:27:37.200Z,100.00
2023-08-15T21:30:06.225Z,100.00
2023-08-15T21:32:34.650Z,100.00
2023-08-15T21:35:02.948Z,100.00
2023-08-15T21:37:31.427Z,100.00
2023-08-15T21:39:59.736Z,100.00
2023-08-15T21:42:32.102Z,100.00
2023-08-15T21:45:02.141Z,100.00
2023-08-15T21:47:30.531Z,100.00
2023-08-15T21:49:58.805Z,100.00
2023-08-15T21:52:27.067Z,100.00
2023-08-15T21:54:55.445Z,100.00
2023-08-15T21:57:24.141Z,100.00
2023-08-15T21:59:54.101Z,100.00
2023-08-15T22:02:22.475Z,100.00
2023-08-15T22:04:50.730Z,100.00
2023-08-15T22:07:18.977Z,100.00
2023-08-15T22:09:47.210Z,100.00
2023-08-15T22:12:15.626Z,100.00
2023-08-15T22:14:43.970Z,100.00
2023-08-15T22:17:13.889Z,100.00
2023-08-15T22:19:42.320Z,100.00
2023-08-15T22:22:10.659Z,100.00
2023-08-15T22:24:38.936Z,100.00
2023-08-15T22:27:07.860Z,100.00
2023-08-15T22:29:36.124Z,100.00
2023-08-15T22:32:04.647Z,100.00
2023-08-15T22:34:34.391Z,100.00
2023-08-15T22:37:02.648Z,100.00
2023-08-15T22:39:30.963Z,100.00
2023-08-15T22:41:59.482Z,100.00
2023-08-15T22:44:28.152Z,100.00
2023-08-15T22:46:56.437Z,100.00
2023-08-15T22:49:24.706Z,100.00
2023-08-15T22:51:54.453Z,100.00
2023-08-15T22:54:22.687Z,100.00
2023-08-15T22:56:51.010Z,100.00
2023-08-15T22:59:19.258Z,100.00
2023-08-15T23:01:47.720Z,100.00
2023-08-15T23:04:16.375Z,100.00
2023-08-15T23:06:44.734Z,100.00
2023-08-15T23:09:14.537Z,100.00
2023-08-15T23:11:42.853Z,100.00
2023-08-15T23:14:11.280Z,100.00
2023-08-15T23:16:39.747Z,100.00
2023-08-15T23:19:08.231Z,100.00
2023-08-15T23:21:36.565Z,100.00
2023-08-15T23:24:06.335Z,100.00
2023-08-15T23:26:36.586Z,100.00
2023-08-15T23:29:06.615Z,100.00
2023-08-15T23:31:36.378Z,100.00
2023-08-15T23:34:05.666Z,100.00
2023-08-15T23:36:34.806Z,100.00
2023-08-15T23:39:05.585Z,100.00
2023-08-15T23:41:35.437Z,100.00
2023-08-15T23:44:03.835Z,100.00
2023-08-15T23:46:32.143Z,100.00
2023-08-15T23:49:00.864Z,100.00
2023-08-15T23:51:31.077Z,100.00
2023-08-15T23:53:59.542Z,100.00
2023-08-15T23:56:27.976Z,100.00
2023-08-15T23:58:57.810Z,100.00
